Weather History for Dickinson, ND

Change the Weather History Date:

Sunday, January 26, 2014

  Actual Average Record
Temperature  
Mean Temperature 16 °F 17 °F  
Max Temperature 37 °F 27 °F 52 °F (2015)
Min Temperature -6 °F 7 °F -35 °F (1950)
Degree Days  
Heating Degree Days 49 48  
Month to date heating degree days 1191 1269  
Since 1 July heating degree days 4846 4806  
Cooling Degree Days 0 0  
Month to date cooling degree days 0 0  
Year to date cooling degree days 0 0  
Moisture  
Dew Point 3 °F    
Average Humidity 66    
Maximum Humidity 75    
Minimum Humidity 56    
Precipitation  
Precipitation T in 0.01 in 0.24 in (1951)
Month to date precipitation 0.02 0.26  
Year to date precipitation 0.02 0.26  
Sea Level Pressure  
Sea Level Pressure 29.92 in    
Wind  
Wind Speed 27 mph (NNW)    
Max Wind Speed 45 mph    
Max Gust Speed 59 mph    
Visibility 6 miles    
Events Snow    
T = Trace of Precipitation, MM = Missing Value Source: NWS Daily Summary

Daily Weather History Graph

Daily Weather History Graph

Search for Another Location

Airport:

Trip Planner

Search our weather history database for the weather conditions in past years. The results will help you decide how hot, cold, wet, or windy it might be!

Date:

Astronomy

Jan. 26, 2014 Rise Set
Actual Time 7:22 AM MST 4:45 PM MST
Civil Twilight 6:49 AM MST 5:18 PM MST
Nautical Twilight 6:12 AM MST 5:55 PM MST
Astronomical Twilight 5:36 AM MST 6:31 PM MST
Moon 3:03 AM MST (1/26) 12:34 PM MST (1/26)
Length of Visible Light 10h 29m
Length of Day
9h 23m
Waning Crescent, 23% of the Moon is Illuminated
Jan 26
Waning Crescent
Jan 30
New
Feb 6
First Quarter
Feb 14
Full
Feb 22
Last Quarter

Hourly Weather History & Observations

Time (MST) Temp. Windchill Dew Point Humidity Pressure Visibility Wind Dir Wind Speed Gust Speed Precip Events Conditions
12:56 AM 36.0 °F 24.4 °F 28.9 °F 76% 29.65 in 10.0 mi WNW 23.0 mph 35.7 mph N/A   Overcast
1:56 AM 36.0 °F 24.2 °F 28.0 °F 73% 29.62 in 10.0 mi WNW 24.2 mph 28.8 mph N/A   Overcast
2:56 AM 36.0 °F 24.2 °F 28.9 °F 76% 29.60 in 10.0 mi WNW 24.2 mph 35.7 mph N/A   Overcast
3:38 AM 36.0 °F 24.2 °F 28.9 °F 76% 29.54 in 10.0 mi WNW 24.2 mph 34.5 mph N/A   Overcast
3:56 AM 35.1 °F 23.0 °F 28.0 °F 76% 29.55 in 10.0 mi West 24.2 mph 32.2 mph N/A   Mostly Cloudy
4:56 AM 35.1 °F 22.5 °F 28.0 °F 76% 29.52 in 10.0 mi West 26.5 mph 34.5 mph N/A   Overcast
5:45 AM 36.0 °F 23.0 °F 28.0 °F 73% 29.46 in 10.0 mi WNW 29.9 mph 40.3 mph N/A   Overcast
5:56 AM 36.0 °F 22.4 °F 28.0 °F 73% 29.50 in 7.0 mi WNW 33.4 mph 43.7 mph 0.00 in Snow Light Snow
6:02 AM 33.1 °F 16.8 °F 26.1 °F 75% 29.51 in 1.5 mi North 43.7 mph 58.7 mph 0.00 in Snow Light Snow
6:06 AM 26.1 °F 8.1 °F 21.0 °F 81% 29.54 in 0.8 mi North 36.8 mph 58.7 mph 0.00 in Snow Light Snow
6:18 AM 21.9 °F 3.4 °F 18.0 °F 85% 29.56 in 0.8 mi North 32.2 mph 50.6 mph 0.00 in Snow Light Snow
6:35 AM 19.9 °F 1.3 °F 15.1 °F 81% 29.58 in 1.8 mi North 29.9 mph 42.6 mph 0.00 in Snow Light Snow
6:37 AM 19.9 °F 0.2 °F 15.1 °F 81% 29.59 in 3.0 mi North 34.5 mph 43.7 mph 0.00 in Snow Light Snow
6:45 AM 19.0 °F -1.6 °F 12.9 °F 77% 29.61 in 5.0 mi North 36.8 mph 55.2 mph 0.00 in Snow Light Snow
6:50 AM 17.6 °F -1.3 °F 10.4 °F 73% 29.61 in 1.8 mi North 27.6 mph 55.2 mph 0.00 in Snow Light Snow
6:56 AM 18.0 °F -3.1 °F 10.9 °F 74% 29.70 in 1.0 mi North 36.8 mph 48.3 mph 0.00 in Snow Light Snow
7:04 AM 17.1 °F -3.0 °F 10.9 °F 77% 29.64 in 0.8 mi NNW 31.1 mph 48.3 mph 0.00 in Snow Light Snow
7:11 AM 17.1 °F -2.0 °F 10.9 °F 77% 29.63 in 1.5 mi NNW 27.6 mph 42.6 mph 0.00 in Snow Light Snow
7:18 AM 16.0 °F -4.4 °F 9.0 °F 74% 29.64 in 3.0 mi NNW 31.1 mph 43.7 mph 0.00 in Snow Light Snow
7:34 AM 16.0 °F -3.8 °F 8.1 °F 71% 29.66 in 10.0 mi NNW 28.8 mph 41.4 mph 0.00 in   Overcast
7:56 AM 16.0 °F -3.8 °F 6.1 °F 65% 29.78 in 10.0 mi NNW 28.8 mph 42.6 mph 0.00 in   Overcast
8:56 AM 15.1 °F -4.4 °F 5.0 °F 64% 29.83 in 10.0 mi NNW 26.5 mph 40.3 mph 0.00 in   Scattered Clouds
9:29 AM 14.0 °F -7.4 °F 5.0 °F 67% 29.77 in 1.8 mi NNW 32.2 mph 48.3 mph 0.00 in Snow Light Snow
9:38 AM 14.0 °F -10.0 °F 6.1 °F 71% 29.78 in 0.8 mi NW 43.7 mph 55.2 mph 0.00 in Snow Light Snow
9:47 AM 10.9 °F -11.9 °F 3.9 °F 73% 29.81 in 0.2 mi NNW 33.4 mph 55.2 mph 0.00 in Snow Heavy Snow
9:53 AM 12.2 °F -8.2 °F -0.4 °F 57% 29.82 in 1.2 mi NNW 26.5 mph 46.0 mph 0.00 in Snow Blowing Snow
9:56 AM 12.0 °F -10.4 °F -0.0 °F 59% 29.92 in 7.0 mi NNW 33.4 mph 43.7 mph 0.00 in   Mostly Cloudy
10:02 AM 10.9 °F -11.3 °F 1.0 °F 64% 29.83 in 1.5 mi NNW 31.1 mph 43.7 mph 0.00 in Snow Light Snow
10:06 AM 10.0 °F -13.7 °F 1.9 °F 70% 29.83 in 0.5 mi NNW 35.7 mph 48.3 mph 0.00 in Snow Snow
10:13 AM 10.0 °F -13.1 °F 3.0 °F 73% 29.85 in 0.2 mi NNW 33.4 mph 48.3 mph 0.00 in Snow Heavy Snow
10:18 AM 10.0 °F -12.5 °F 3.0 °F 73% 29.86 in 0.5 mi NNW 31.1 mph 43.7 mph 0.00 in Snow Snow
10:24 AM 9.0 °F -16.1 °F -2.0 °F 61% 29.87 in 2.0 mi NW 39.1 mph 51.8 mph 0.00 in Snow Light Snow
10:33 AM 9.0 °F -15.8 °F -2.0 °F 61% 29.87 in 4.0 mi NNW 38.0 mph 52.9 mph 0.00 in Snow Light Snow
10:38 AM 9.0 °F -15.2 °F -0.9 °F 64% 29.89 in 1.8 mi NNW 35.7 mph 52.9 mph 0.00 in Snow Light Snow
10:56 AM 7.0 °F -16.7 °F -2.9 °F 64% 30.03 in 1.0 mi NNW 31.1 mph 48.3 mph 0.00 in Snow Light Snow
11:03 AM 6.1 °F -18.6 °F -0.9 °F 73% 29.92 in 0.2 mi NNW 33.4 mph 49.5 mph 0.00 in Snow Heavy Snow
11:11 AM 7.0 °F -18.8 °F -4.0 °F 61% 29.92 in 1.2 mi NNW 39.1 mph 50.6 mph 0.00 in Snow Light Snow
11:13 AM 7.0 °F -18.3 °F -5.1 °F 58% 29.92 in 3.0 mi NNW 36.8 mph 50.6 mph 0.00 in Snow Light Snow
11:19 AM 7.0 °F -18.0 °F -2.9 °F 64% 29.93 in 1.5 mi NNW 35.7 mph 50.6 mph 0.00 in Snow Light Snow
11:28 AM 6.1 °F -17.6 °F -2.9 °F 67% 29.94 in 0.8 mi NNW 29.9 mph 41.4 mph 0.00 in Snow Light Snow
11:31 AM 6.1 °F -17.6 °F -4.0 °F 63% 29.94 in 2.0 mi NNW 29.9 mph 41.4 mph 0.00 in Snow Light Snow
11:38 AM 5.0 °F -21.3 °F -5.1 °F 63% 29.94 in 7.0 mi NNW 38.0 mph 46.0 mph 0.00 in   Mostly Cloudy
11:53 AM 5.0 °F -20.1 °F -4.0 °F 66% 29.96 in 1.8 mi NNW 33.4 mph 43.7 mph 0.00 in Snow Light Snow
11:56 AM 3.9 °F -21.5 °F -4.0 °F 70% 30.08 in 1.0 mi NNW 33.4 mph 42.6 mph 0.00 in Snow Light Snow
12:08 PM 3.9 °F -20.1 °F -6.0 °F 64% 29.97 in 3.0 mi NNW 28.8 mph 41.4 mph 0.00 in Snow Light Snow
12:56 PM 1.9 °F -24.9 °F -9.9 °F 58% 30.15 in 10.0 mi NNW 35.7 mph 46.0 mph 0.00 in   Overcast
1:56 PM 1.9 °F -24.6 °F -9.9 °F 58% 30.20 in 10.0 mi NW 34.5 mph 43.7 mph 0.00 in   Mostly Cloudy
2:56 PM -0.0 °F -23.8 °F -9.9 °F 63% 30.26 in 10.0 mi NNW 24.2 mph 40.3 mph N/A   Overcast
3:23 PM 1.0 °F -23.2 °F -11.0 °F 57% 30.14 in 10.0 mi NW 26.5 mph 36.8 mph 0.00 in   Mostly Cloudy
3:34 PM -0.0 °F -25.5 °F -9.9 °F 63% 30.14 in 7.0 mi NW 28.8 mph 38.0 mph 0.00 in   Overcast
3:56 PM -0.0 °F -22.9 °F -11.0 °F 60% 30.30 in 10.0 mi NNW 21.9 mph 36.8 mph 0.00 in   Overcast
4:56 PM -2.0 °F -26.9 °F -14.1 °F 57% 30.33 in 10.0 mi NNW 25.3 mph 39.1 mph 0.00 in   Scattered Clouds
5:07 PM -2.0 °F -27.3 °F -11.9 °F 63% 30.20 in 10.0 mi NW 26.5 mph 34.5 mph N/A   Mostly Cloudy
5:17 PM -2.0 °F -26.0 °F -11.0 °F 66% 30.20 in 10.0 mi NW 23.0 mph 32.2 mph N/A   Scattered Clouds
5:25 PM -2.0 °F -26.0 °F -11.0 °F 66% 30.20 in 10.0 mi NNW 23.0 mph 32.2 mph N/A   Mostly Cloudy
5:56 PM -2.0 °F -27.3 °F -11.9 °F 63% 30.36 in 10.0 mi NW 26.5 mph 35.7 mph N/A   Scattered Clouds
6:56 PM -2.9 °F -27.2 °F -11.0 °F 68% 30.40 in 10.0 mi NW 23.0 mph - N/A   Partly Cloudy
7:10 PM -2.0 °F -25.5 °F -11.0 °F 66% 30.24 in 10.0 mi NW 21.9 mph 32.2 mph N/A   Mostly Cloudy
7:19 PM -2.9 °F -27.6 °F -11.9 °F 65% 30.24 in 10.0 mi NW 24.2 mph 34.5 mph N/A   Scattered Clouds
7:56 PM -2.9 °F -28.1 °F -11.9 °F 65% 30.41 in 10.0 mi NW 25.3 mph 35.7 mph N/A   Scattered Clouds
8:56 PM -4.0 °F -29.6 °F -14.1 °F 62% 30.44 in 10.0 mi NW 25.3 mph 33.4 mph N/A   Clear
9:56 PM -5.1 °F -31.0 °F -14.1 °F 65% 30.45 in 10.0 mi NW 25.3 mph 31.1 mph N/A   Clear
10:56 PM -6.0 °F -26.3 °F -13.0 °F 72% 30.48 in 10.0 mi NW 13.8 mph - N/A   Clear
11:56 PM -6.0 °F -29.0 °F -14.1 °F 68% 30.48 in 10.0 mi NW 18.4 mph - N/A   Partly Cloudy